Tiempo atmosférico en la estación meteorológica de Arenys De Mar, Barcelona (50 m.)



Fecha
DESCASC
Temp. máxima en grados centígrados (hora)
DESCASC
Temp. mínima en grados centígrados (hora)
DESCASC
Temp. media en grados centígrados
DESCASC
Racha de viento máxima en m/sg (hora)
DESCASC
Velocidad máxima media en intervalos de 10 minutos(hora)
DESCASC
Precipitaciones diarias en mm
DESCASC
Precipitaciones de 00:00 a 06:00 en mm
DESCASC
Precipitaciones de 06:00 a 12:00 en mm
DESCASC
Precipitaciones de 12:00 a 18:00 en mm
DESCASC
Precipitaciones de 18:00 a 24:00 en mm
DESCASC
10-02-2019 19.5 (12:20) 10.1 (00:00) 14.8 15 (15:10) 5.56 (15:10) 0 0 0 0 0
09-02-2019 17.1 (12:30) 6.4 (05:10) 11.8 4.44 (14:00) 2.5 (16:00) 0 0 0 0 0
08-02-2019 17.2 (13:10) 6 (08:20) 11.6 9.44 (15:40) 3.89 (16:50) 0 0 0 0 0
07-02-2019 14.1 (11:10) 6.4 (00:00) 10.3 3.33 (13:20) 1.67 (08:20) 0 0 0 0 0
06-02-2019 17 (12:00) 5.9 (00:00) 11.5 4.17 (13:50) 1.67 (01:20) 0 0 0 0 0
05-02-2019 16 (11:40) 5.5 (00:00) 10.8 3.89 (13:00) 1.94 (22:40) 0 0 0 0 0
04-02-2019 13.3 (13:50) 1.1 (00:00) 7.2 4.44 (04:50) 2.78 (00:30) 0 0 0 0 0
03-02-2019 13.3 (12:00) 1.4 (00:00) 7.4 8.06 (21:50) 5.28 (21:30) 0 0 0 0 0
02-02-2019 13 (14:30) 3.4 (00:00) 8.2 12.22 (02:00) 5.83 (00:10) 2.4 0.1 0 2.2 0.1
01-02-2019 16.7 (12:10) 7.2 (00:00) 12 13.06 (23:40) 6.39 (23:40) 2.5 0 0.1 0 2.4
31-01-2019 16.8 (16:00) 5.6 (00:00) 11.2 10 (16:20) 4.17 (16:40) 0 0 0 0 0
30-01-2019 14 (14:20) 3.2 (00:00) 8.6 6.94 (08:50) 3.89 (06:00) 0 0 0 0 0
29-01-2019 10.4 (11:10) 3.6 (00:00) 7 7.78 (23:10) 2.5 (20:30) 0 0 0 0 0
28-01-2019 16 (13:40) 2.9 (00:00) 9.5 13.61 (15:40) 6.39 (15:40) 0 0 0 0 0
27-01-2019 15.7 (13:30) 5.6 (00:00) 10.6 6.67 (12:20) 3.06 (00:40) 0 0 0 0 0
26-01-2019 16.7 (11:00) 5.1 (00:00) 10.9 7.5 (16:30) 3.61 (15:00) 0 0 0 0 0
25-01-2019 15.6 (12:00) 2 (00:00) 8.8 5.83 (12:50) 2.5 (13:10) 0 0 0 0 0
24-01-2019 14.8 (14:10) 4.3 (00:00) 9.6 11.67 (04:30) 5.83 (09:30) 0 0 0 0 0
23-01-2019 12 (13:10) 3.9 (00:00) 8 12.22 (18:40) 5 (18:40) 0.1 0 0.1 0 0
22-01-2019 11.8 (11:10) 3.6 (00:00) 7.7 6.11 (18:10) 2.78 (18:20) 0 0 0 0 0
21-01-2019 13.8 (12:10) 3.7 (00:00) 8.8 6.11 (02:00) 4.17 (02:00) 0 0 0 0 0
20-01-2019 9.6 (14:40) 6.6 (00:00) 8.1 7.5 (16:20) 3.06 (21:20) 10.3 1.3 8.9 0.1 0
19-01-2019 14.2 (11:50) 5.5 (00:00) 9.8 4.72 (14:10) 2.5 (06:40) 0 0 0 0 0

Gráficas

Temp. máximas Temp. mínimas Temp. medias Precipitaciones Rachas de viento máximas Velocidades máximas media en intervalos de 10 minutos

Datos horarios

Fecha y hora oficial Temperatura (ºC) Velocidad del viento (km/h) Dirección del viento Racha (km/h) Dirección de racha Precipitación (mm) Presión (hPa) Tendencia (hPa) Humedad (%)
2019-02-13 02:00:00 4.5 0 Calma 8 Norte 0 -- -- 57
2019-02-13 01:00:00 5.4 4 Norte 8 Noroeste 0 -- -- 55
2019-02-13 00:00:00 5.6 3 Norte 6 Norte 0 -- -- 60
2019-02-12 23:00:00 5.8 0 Calma 5 Norte 0 -- -- 62
2019-02-12 22:00:00 6.5 0 Calma 6 Norte 0 -- -- 64
2019-02-12 21:00:00 7.1 0 Calma 10 Norte 0 -- -- 73
2019-02-12 20:00:00 7.8 5 Norte 8 Norte 0 -- -- 75
2019-02-12 19:00:00 9.1 3 Norte 6 Norte 0 -- -- 77
2019-02-12 18:00:00 11.5 2 Sudoeste 15 Sur 0 -- -- 64
2019-02-12 17:00:00 13.4 7 Sudoeste 23 Sudoeste 0 -- -- 58
2019-02-12 16:00:00 13.4 9 Sudoeste 24 Sur 0 -- -- 48
2019-02-12 15:00:00 14.6 8 Sudoeste 27 Sur 0 -- -- 43
2019-02-12 14:00:00 15.7 10 Sur 20 Sur 0 -- -- 33
2019-02-12 13:00:00 15 10 Sur 20 Sudoeste 0 -- -- 39
2019-02-12 12:00:00 16.5 6 Sur 15 Sudoeste 0 -- -- 32
2019-02-12 11:00:00 14.4 2 Sur 8 Sudeste 0 -- -- 47
2019-02-12 10:00:00 12.9 2 Sudeste 9 Norte 0 -- -- 53
2019-02-12 09:00:00 7.7 5 Norte 17 Norte 0 -- -- 71
2019-02-12 08:00:00 5.9 6 Norte 17 Norte 0 -- -- 80
2019-02-12 07:00:00 6.1 8 Norte 17 Norte 0 -- -- 83
2019-02-12 06:00:00 5.8 5 Norte 9 Norte 0 -- -- 90
2019-02-12 05:00:00 6.1 3 Norte 12 Norte 0 -- -- 89
2019-02-12 04:00:00 7 6 Norte 14 Norte 0 -- -- 86
2019-02-12 03:00:00 7.6 7 Norte 13 Norte 0 -- -- 86
2019-02-12 02:00:00 8.7 6 Noroeste 14 Noroeste 0 -- -- 86
2019-02-12 01:00:00 8.5 6 Norte 10 Norte 0 -- -- 87
2019-02-12 00:00:00 9 4 Norte 10 Norte 0 -- -- 84
2019-02-11 23:00:00 8.6 6 Noroeste 10 Norte 0 -- -- 86
2019-02-11 22:00:00 8.2 4 Norte 10 Norte 0 -- -- 85
2019-02-11 21:00:00 8.5 3 Norte 8 Norte 0 -- -- 81
2019-02-11 20:00:00 8.5 4 Norte 7 Norte 0 -- -- 81
2019-02-11 19:00:00 9.4 4 Norte 12 Sur 0 -- -- 74
2019-02-11 18:00:00 11.9 7 Sur 17 Sur 0 -- -- 61
2019-02-11 17:00:00 12.6 5 Sur 18 Sudoeste 0 -- -- 60
2019-02-11 16:00:00 13.4 8 Sur 26 Sur 0 -- -- 58
2019-02-11 15:00:00 13.9 8 Sur 22 Sudoeste 0 -- -- 51
2019-02-11 14:00:00 14.5 12 Sur 24 Sur 0 -- -- 47
2019-02-11 13:00:00 14.4 7 Sudoeste 19 Sudoeste 0 -- -- 49
2019-02-11 12:00:00 14.2 7 Sudoeste 19 Sudoeste 0 -- -- 52
2019-02-11 11:00:00 13.1 3 Oeste 14 Oeste 0 -- -- 56
2019-02-11 10:00:00 13.4 5 Oeste 13 Oeste 0 -- -- 56
2019-02-11 09:00:00 11.7 5 Noroeste 8 Noroeste 0 -- -- 64
2019-02-11 08:00:00 10.2 0 Calma 7 Norte 0 -- -- 70
2019-02-11 07:00:00 11 3 Norte 12 Norte 0 -- -- 67
2019-02-11 06:00:00 11 2 Norte 11 Norte 0 -- -- 66
2019-02-11 05:00:00 10.6 3 Sudoeste 5 Sudoeste 0 -- -- 71
2019-02-11 04:00:00 11 0 Calma 5 Noroeste 0 -- -- 70
2019-02-11 03:00:00 11.1 0 Calma 7 Sudoeste 0 -- -- 69
2019-02-11 02:00:00 11.1 2 Sudoeste 7 Sudoeste 0 -- -- 67
2019-02-11 01:00:00 11.7 0 Calma 6 Noroeste 0 -- -- 72
2019-02-11 00:00:00 12.2 0 Calma 12 Norte 0 -- -- 78
2019-02-10 23:00:00 12.1 5 Norte 20 Nordeste 0 -- -- 79
2019-02-10 22:00:00 12.2 8 Norte 24 Nordeste 0 -- -- 74
2019-02-10 21:00:00 12.5 5 Norte 17 Norte 0 -- -- 68
2019-02-10 20:00:00 11.9 0 Calma 6 Nordeste 0 -- -- 62
2019-02-10 19:00:00 12.6 0 Calma 7 Sudoeste 0 -- -- 58
2019-02-10 18:00:00 16.3 6 Noroeste 24 Noroeste 0 -- -- 36
2019-02-10 17:00:00 17.9 6 Sudoeste 28 Sudoeste 0 -- -- 33
2019-02-10 16:00:00 17.5 7 Norte 54 Noroeste 0 -- -- 33
2019-02-10 15:00:00 16 19 Oeste 45 Noroeste 0 -- -- 34
2019-02-10 14:00:00 16.7 8 Sudoeste 43 Sudoeste 0 -- -- 32
2019-02-10 13:00:00 18.3 9 Oeste 34 Oeste 0 -- -- 31
2019-02-10 12:00:00 18.2 14 Sudoeste 36 Sudoeste 0 -- -- 34
2019-02-10 11:00:00 15.5 15 Sudoeste 36 Sudoeste 0 -- -- 39
2019-02-10 10:00:00 13.9 12 Sudoeste 29 Sudoeste 0 -- -- 43
2019-02-10 09:00:00 12 11 Oeste 28 Sudoeste 0 -- -- 48
2019-02-10 08:00:00 11.1 8 Sudoeste 24 Sudoeste 0 -- -- 51
2019-02-10 07:00:00 11.1 10 Oeste 25 Oeste 0 -- -- 51
2019-02-10 06:00:00 10.5 6 Sur 19 Sudoeste 0 -- -- 52
2019-02-10 05:00:00 11.6 8 Oeste 27 Sudoeste 0 -- -- 47
2019-02-10 04:00:00 11.3 12 Sur 27 Oeste 0 -- -- 51
2019-02-10 03:00:00 11.1 5 Sudoeste 14 Sudoeste 0 -- -- 59
2019-02-10 02:00:00 11.9 10 Sudoeste 26 Sudoeste 0 -- -- 58
2019-02-10 01:00:00 10.9 5 Oeste 13 Oeste 0 -- -- 74
2019-02-10 00:00:00 10.1 6 Sudoeste 12 Oeste 0 -- -- 91
2019-02-09 23:00:00 7.7 0 Calma 7 Norte 0 -- -- 91
2019-02-09 22:00:00 7.8 4 Norte 8 Norte 0 -- -- 90
2019-02-09 21:00:00 8.2 3 Norte 8 Norte 0 -- -- 90
2019-02-09 20:00:00 9.3 0 Calma 4 Nordeste 0 -- -- 90
2019-02-09 19:00:00 10.1 0 Calma 8 Sur 0 -- -- 87
2019-02-09 18:00:00 11.7 6 Sur 12 Sur 0 -- -- 81
2019-02-09 17:00:00 13.2 5 Sur 14 Sur 0 -- -- 69
2019-02-09 16:00:00 13.4 9 Sur 15 Sur 0 -- -- 63
2019-02-09 15:00:00 14.4 6 Sur 13 Sur 0 -- -- 56
2019-02-09 14:00:00 15.6 7 Sur 16 Sur 0 -- -- 50
2019-02-09 13:00:00 16.8 5 Sur 12 Sur 0 -- -- 47
2019-02-09 12:00:00 16.5 6 Sur 13 Sur 0 -- -- 51
2019-02-09 11:00:00 15.3 4 Sur 8 Sudeste 0 -- -- 56
2019-02-09 10:00:00 11.4 3 Norte 8 Norte 0 -- -- 75
2019-02-09 09:00:00 8.8 3 Norte 8 Norte 0 -- -- 88
2019-02-09 08:00:00 6.9 4 Norte 8 Norte 0 -- -- 89
2019-02-09 07:00:00 7.5 5 Norte 10 Norte 0 -- -- 85
2019-02-09 06:00:00 6.9 4 Norte 12 Norte 0 -- -- 84
2019-02-09 05:00:00 6.5 4 Norte 12 Norte 0 -- -- 83
2019-02-09 04:00:00 6.9 4 Norte 13 Norte 0 -- -- 81
2019-02-09 03:00:00 7.7 4 Nordeste 13 Nordeste 0 -- -- 80
2019-02-09 02:00:00 7.4 4 Norte 14 Oeste 0 -- -- 84
2019-02-09 01:00:00 9.6 5 Sudoeste 14 Sudoeste 0 -- -- 74
2019-02-09 00:00:00 10.4 4 Sudoeste 18 Sudoeste 0 -- -- 76
2019-02-08 23:00:00 10.4 9 Sudoeste 22 Sudoeste 0 -- -- 79
2019-02-08 22:00:00 11.1 9 Noroeste 30 Noroeste 0 -- -- 75
2019-02-08 21:00:00 11.3 6 Noroeste 17 Oeste 0 -- -- 84
2019-02-08 20:00:00 9.5 0 Calma 6 Sudoeste 0 -- -- 89
2019-02-08 19:00:00 11.4 4 Sur 24 Oeste 0 -- -- 86
2019-02-08 18:00:00 12.2 11 Sudoeste 27 Sudoeste 0 -- -- 83
2019-02-08 17:00:00 13.2 11 Sudoeste 33 Sudoeste 0 -- -- 80
2019-02-08 16:00:00 13.8 12 Sur 34 Oeste 0 -- -- 72
2019-02-08 15:00:00 15 11 Sudoeste 32 Sudoeste 0 -- -- 56
2019-02-08 14:00:00 15 9 Sudoeste 21 Sudoeste 0 -- -- 44
2019-02-08 13:00:00 16.2 5 Oeste 22 Oeste 0 -- -- 38
2019-02-08 12:00:00 15.8 8 Oeste 22 Sudoeste 0 -- -- 38
2019-02-08 11:00:00 15.3 5 Oeste 15 Oeste 0 -- -- 40
2019-02-08 10:00:00 12.2 2 Norte 9 Noroeste 0 -- -- 55
2019-02-08 09:00:00 8.3 4 Noroeste 10 Oeste 0 -- -- 80
2019-02-08 08:00:00 6.2 2 Norte 9 Nordeste 0 -- -- 90
2019-02-08 07:00:00 6.8 5 Norte 9 Norte 0 -- -- 90
2019-02-08 06:00:00 7.5 4 Norte 6 Norte 0 -- -- 90
2019-02-08 05:00:00 8.7 0 Calma -- -- 0 -- -- 90
2019-02-08 04:00:00 9.4 0 Calma 5 Nordeste 0 -- -- 90
2019-02-08 03:00:00 9 2 Nordeste 5 Norte 0 -- -- 90
2019-02-08 02:00:00 8.3 4 Norte 8 Norte 0 -- -- 90
2019-02-08 01:00:00 8.8 3 Norte 5 Norte 0 -- -- 90
2019-02-08 00:00:00 8.3 0 Calma 9 Norte 0 -- -- 90
2019-02-07 23:00:00 8.5 4 Norte 8 Norte 0 -- -- 90
2019-02-07 22:00:00 8.8 0 Calma 6 Noroeste 0 -- -- 90
2019-02-07 21:00:00 9.1 0 Calma 3 Oeste 0 -- -- 89
2019-02-07 20:00:00 9.7 0 Calma 4 Nordeste 0 -- -- 87
2019-02-07 19:00:00 9.8 0 Calma 3 Sudoeste 0 -- -- 85
2019-02-07 18:00:00 10.9 3 Sudoeste 6 Sur 0 -- -- 79
2019-02-07 17:00:00 13 3 Sur 6 Este 0 -- -- 70
2019-02-07 16:00:00 13 3 Sur 8 Sudeste 0 -- -- 67
2019-02-07 15:00:00 13.3 3 Sudeste 10 Sudeste 0 -- -- 70
2019-02-07 14:00:00 12.6 3 Sur 12 Sudeste 0 -- -- 74
2019-02-07 13:00:00 12.9 4 Sur 10 Sudeste 0 -- -- 75
2019-02-07 12:00:00 12.4 2 Sudeste 10 Sur 0 -- -- 74
2019-02-07 11:00:00 13.6 4 Sur 8 Sur 0 -- -- 69
2019-02-07 10:00:00 10.8 0 Calma 5 Norte 0 -- -- 91
2019-02-07 09:00:00 8.1 0 Calma 10 Norte 0 -- -- 91
2019-02-07 08:00:00 6.6 4 Norte 9 Norte 0 -- -- 92
2019-02-07 07:00:00 6.7 3 Norte 8 Norte 0 -- -- 92
2019-02-07 06:00:00 7 4 Norte 8 Norte 0 -- -- 92
2019-02-07 05:00:00 6.8 3 Norte 8 Norte 0 -- -- 92
2019-02-07 04:00:00 7.1 4 Norte 5 Norte 0 -- -- 92
2019-02-07 03:00:00 7.4 2 Norte 6 Norte 0 -- -- 92
2019-02-07 02:00:00 7.9 2 Norte 8 Norte 0 -- -- 92
2019-02-07 01:00:00 7.5 4 Norte 9 Norte 0 -- -- 91
2019-02-07 00:00:00 7.8 4 Norte 9 Norte 0 -- -- 91
2019-02-06 23:00:00 8 5 Norte 9 Norte 0 -- -- 91
2019-02-06 22:00:00 8.4 5 Norte 10 Norte 0 -- -- 90
2019-02-06 21:00:00 8.8 5 Norte 9 Norte 0 -- -- 90
2019-02-06 20:00:00 9.7 3 Norte 5 Norte 0 -- -- 88
2019-02-06 19:00:00 11.4 0 Calma 9 Sur 0 -- -- 86
2019-02-06 18:00:00 11.8 5 Sur 9 Sur 0 -- -- 85
2019-02-06 17:00:00 13 5 Sur 11 Sur 0 -- -- 70
2019-02-06 16:00:00 13.5 4 Sudeste 11 Sur 0 -- -- 65
2019-02-06 15:00:00 14.3 4 Sur 10 Sudeste 0 -- -- 57
2019-02-06 14:00:00 15.6 5 Sudeste 15 Sudeste 0 -- -- 53
2019-02-06 13:00:00 16 4 Sudeste 11 Sudeste 0 -- -- 51
2019-02-06 12:00:00 16.7 3 Sur 11 Sudeste 0 -- -- 51
2019-02-06 11:00:00 16 2 Sur 9 Sur 0 -- -- 51
2019-02-06 10:00:00 15.5 0 Calma 6 Norte 0 -- -- 57
2019-02-06 09:00:00 8.2 0 Calma 8 Norte 0 -- -- 89
2019-02-06 08:00:00 7.9 5 Norte 9 Norte 0 -- -- 90
2019-02-06 07:00:00 6.2 0 Calma 7 Norte 0 -- -- 91
2019-02-06 06:00:00 6.7 3 Norte 10 Norte 0 -- -- 89
2019-02-06 05:00:00 6.6 5 Norte 8 Norte 0 -- -- 87
2019-02-06 04:00:00 6.3 4 Norte 8 Norte 0 -- -- 84
2019-02-06 03:00:00 6.4 3 Norte 7 Norte 0 -- -- 82
2019-02-06 02:00:00 7 4 Norte 10 Norte 0 -- -- 75
2019-02-06 01:00:00 7.7 3 Norte 9 Norte 0 -- -- 70
2019-02-06 00:00:00 6.9 3 Norte 10 Norte 0 -- -- 69
2019-02-05 23:00:00 8.2 6 Norte 10 Norte 0 -- -- 61
2019-02-05 22:00:00 8 5 Norte 12 Norte 0 -- -- 65
2019-02-05 21:00:00 8.3 6 Norte 12 Norte 0 -- -- 70
2019-02-05 20:00:00 7.9 4 Norte 6 Norte 0 -- -- 78
2019-02-05 19:00:00 8.8 3 Norte 5 Norte 0 -- -- 79
2019-02-05 18:00:00 10.6 0 Calma 7 Sudoeste 0 -- -- 71
2019-02-05 17:00:00 12.7 3 Sur 12 Sudoeste 0 -- -- 59
2019-02-05 16:00:00 13.6 5 Sudeste 10 Sudeste 0 -- -- 40
2019-02-05 15:00:00 13.6 3 Sur 10 Sudeste 0 -- -- 40
2019-02-05 14:00:00 15.2 4 Sur 12 Sudeste 0 -- -- 41
2019-02-05 13:00:00 15 7 Sudeste 14 Sudeste 0 -- -- 41
2019-02-05 12:00:00 13.3 3 Sudeste 9 Este 0 -- -- 41
2019-02-05 11:00:00 13.1 0 Calma 8 Sudeste 0 -- -- 43
2019-02-05 10:00:00 13.1 0 Calma 9 Nordeste 0 -- -- 43
2019-02-05 09:00:00 7.5 4 Norte 9 Norte 0 -- -- 61
2019-02-05 08:00:00 6.7 2 Norte 8 Norte 0 -- -- 70
2019-02-05 07:00:00 6.1 3 Norte 8 Norte 0 -- -- 70
2019-02-05 06:00:00 5.6 3 Norte 8 Norte 0 -- -- 65
2019-02-05 05:00:00 6.3 0 Calma 6 Norte 0 -- -- 61
2019-02-05 04:00:00 6.6 2 Norte 6 Norte 0 -- -- 58
2019-02-05 03:00:00 6.5 2 Nordeste 9 Nordeste 0 -- -- 57
2019-02-05 02:00:00 6.9 0 Calma 10 Oeste 0 -- -- 55
2019-02-05 01:00:00 7.1 0 Calma 4 Norte 0 -- -- 55
2019-02-05 00:00:00 8.7 3 Oeste 11 Oeste 0 -- -- 49
2019-02-04 23:00:00 8.6 3 Noroeste 8 Oeste 0 -- -- 51
2019-02-04 22:00:00 6.9 3 Noroeste 7 Norte 0 -- -- 53
2019-02-04 21:00:00 6.2 5 Norte 10 Norte 0 -- -- 49
2019-02-04 20:00:00 5.5 4 Norte 7 Norte 0 -- -- 50
2019-02-04 19:00:00 7 3 Noroeste 6 Norte 0 -- -- 47
2019-02-04 18:00:00 7.6 2 Noroeste 8 Sur 0 -- -- 46
2019-02-04 17:00:00 9.3 3 Sur 8 Sur 0 -- -- 35
2019-02-04 16:00:00 10.5 4 Sur 9 Sudeste 0 -- -- 28
2019-02-04 15:00:00 10.7 4 Sur 12 Sudeste 0 -- -- 33
2019-02-04 14:00:00 13 3 Sur 10 Sudeste 0 -- -- 32
2019-02-04 13:00:00 12 5 Sur 14 Sur 0 -- -- 34
2019-02-04 12:00:00 12.6 4 Sudeste 9 Sudeste 0 -- -- 29
2019-02-04 11:00:00 12.3 3 Sudeste 9 Sudeste 0 -- -- 32
2019-02-04 10:00:00 10.1 0 Calma 7 Norte 0 -- -- 35
2019-02-04 09:00:00 3.4 5 Norte 15 Norte 0 -- -- 33
2019-02-04 08:00:00 1.9 7 Norte 16 Norte 0 -- -- 36
2019-02-04 07:00:00 1.5 6 Norte 16 Norte 0 -- -- 36
2019-02-04 06:00:00 3 6 Norte 12 Noroeste 0 -- -- 32
2019-02-04 05:00:00 2.3 6 Norte 16 Noroeste 0 -- -- 34
2019-02-04 04:00:00 3.2 6 Norte 14 Norte 0 -- -- 33
2019-02-04 03:00:00 3.8 8 Norte 14 Norte 0 -- -- 33
2019-02-04 02:00:00 3.2 6 Norte 12 Norte 0 -- -- 32
2019-02-04 01:00:00 3.8 3 Norte 15 Norte 0 -- -- 29
2019-02-04 00:00:00 3.8 0 Calma 14 Norte 0 -- -- 31
2019-02-03 23:00:00 7.5 11 Norte 26 Noroeste 0 -- -- 24
2019-02-03 22:00:00 8.1 15 Norte 29 Noroeste 0 -- -- 23
2019-02-03 21:00:00 8.1 9 Noroeste 18 Noroeste 0 -- -- 26
2019-02-03 20:00:00 7.4 8 Norte 16 Norte 0 -- -- 28
2019-02-03 19:00:00 8.5 6 Noroeste 21 Norte 0 -- -- 27
2019-02-03 18:00:00 7.2 4 Norte 6 Norte 0 -- -- 45
2019-02-03 17:00:00 11.2 4 Sur 16 Sur 0 -- -- 32
2019-02-03 16:00:00 11.5 7 Sur 19 Sur 0 -- -- 29
2019-02-03 15:00:00 11.5 9 Sudoeste 18 Sur 0 -- -- 26
2019-02-03 14:00:00 12.3 8 Sur 19 Sur 0 -- -- 30
2019-02-03 13:00:00 11.2 7 Sur 19 Sur 0 -- -- 33
2019-02-03 12:00:00 12.3 3 Sudoeste 17 Oeste 0 -- -- 31
2019-02-03 11:00:00 10.9 4 Sur 14 Sur 0 -- -- 41
2019-02-03 10:00:00 8.8 2 Norte 14 Norte 0 -- -- 52
2019-02-03 09:00:00 2.7 6 Norte 17 Norte 0 -- -- 65
2019-02-03 08:00:00 1.9 6 Norte 11 Norte 0 -- -- 62
2019-02-03 07:00:00 2.1 6 Norte 12 Norte 0 -- -- 56
2019-02-03 06:00:00 1.9 5 Norte 12 Norte 0 -- -- 56
2019-02-03 05:00:00 2.2 8 Norte 14 Norte 0 -- -- 55
2019-02-03 04:00:00 2.2 5 Norte 11 Norte 0 -- -- 64
2019-02-03 03:00:00 2.2 0 Calma 15 Norte 0 -- -- 71
2019-02-03 02:00:00 3.1 4 Norte 8 Norte 0 -- -- 80
2019-02-03 01:00:00 3.7 3 Norte 10 Norte 0 -- -- 80
2019-02-03 00:00:00 4.8 6 Norte 12 Norte 0 -- -- 84
2019-02-02 23:00:00 5 5 Norte 14 Norte 0 -- -- 84
2019-02-02 22:00:00 5 7 Norte 16 Norte 0 -- -- 91
2019-02-02 21:00:00 5.5 6 Norte 15 Norte 0 -- -- 92
2019-02-02 20:00:00 5.7 5 Norte 12 Norte 0.1 -- -- 92
2019-02-02 19:00:00 6.4 5 Norte 12 Norte 0 -- -- 91
2019-02-02 18:00:00 7.5 3 Noroeste 13 Oeste 2.2 -- -- 90
2019-02-02 17:00:00 9.6 3 Este 12 Este 0 -- -- 60
2019-02-02 16:00:00 11.2 5 Sur 10 Sur 0 -- -- 52
2019-02-02 15:00:00 11.3 3 Sur 8 Este 0 -- -- 50
2019-02-02 14:00:00 11.3 4 Norte 12 Noroeste 0 -- -- 49
2019-02-02 13:00:00 10.4 2 Norte 19 Oeste 0 -- -- 54
2019-02-02 12:00:00 9.4 6 Oeste 18 Oeste 0 -- -- 54
2019-02-02 11:00:00 9.7 8 Noroeste 19 Sudoeste 0 -- -- 57
2019-02-02 10:00:00 8.5 5 Norte 10 Norte 0 -- -- 65
2019-02-02 09:00:00 6.6 6 Norte 11 Norte 0 -- -- 73
2019-02-02 08:00:00 5.9 8 Norte 14 Norte 0 -- -- 77
2019-02-02 07:00:00 3.5 3 Sudoeste 11 Sur 0 -- -- 88
2019-02-02 06:00:00 4.7 4 Sudoeste 10 Sur 0 -- -- 86
2019-02-02 05:00:00 4.2 0 Calma 9 Sudoeste 0 -- -- 88
2019-02-02 04:00:00 6 7 Sur 19 Sur 0 -- -- 77
2019-02-02 03:00:00 6.8 6 Sudoeste 31 Noroeste 0 -- -- 71
2019-02-02 02:00:00 8.3 18 Noroeste 44 Noroeste 0.1 -- -- 62
2019-02-02 01:00:00 7.5 18 Noroeste 40 Noroeste 0 -- -- 74
2019-02-02 00:00:00 8.1 20 Noroeste 47 Noroeste 2.4 -- -- 79
2019-02-01 23:00:00 12 6 Noroeste 23 Oeste 0 -- -- 54
2019-02-01 22:00:00 9.6 5 Noroeste 10 Noroeste 0 -- -- 58
2019-02-01 21:00:00 9 0 Calma 8 Noroeste 0 -- -- 61
2019-02-01 20:00:00 10.4 3 Noroeste 10 Sudoeste 0 -- -- 56
2019-02-01 19:00:00 11.7 4 Oeste 21 Oeste 0 -- -- 57
2019-02-01 18:00:00 12.9 6 Sudoeste 23 Sudoeste 0 -- -- 53
2019-02-01 17:00:00 14.2 8 Sudoeste 23 Sudoeste 0 -- -- 40
2019-02-01 16:00:00 14.2 8 Sudoeste 31 Sur 0 -- -- 56
2019-02-01 15:00:00 14.7 9 Sudoeste 31 Sudoeste 0 -- -- 66
2019-02-01 14:00:00 15.1 14 Sudoeste 35 Sudoeste 0 -- -- 60
2019-02-01 13:00:00 14.9 13 Sudoeste 28 Sudoeste 0 -- -- 53
2019-02-01 12:00:00 15.6 7 Noroeste 35 Norte 0 -- -- 49
2019-02-01 11:00:00 13.2 13 Noroeste 43 Noroeste 0 -- -- 60
2019-02-01 10:00:00 13.8 9 Sudoeste 26 Sudoeste 0 -- -- 82
2019-02-01 09:00:00 13.5 12 Sudoeste 26 Sudoeste 0 -- -- 82
2019-02-01 08:00:00 13.7 6 Sudoeste 23 Oeste 0 -- -- 72
2019-02-01 07:00:00 13.5 8 Oeste 32 Oeste 0.1 -- -- 73
2019-02-01 06:00:00 13.2 5 Oeste 21 Sudoeste 0 -- -- 75
2019-02-01 05:00:00 10.1 4 Sur 9 Sur 0 -- -- 82
2019-02-01 04:00:00 9.2 0 Calma 5 Noroeste 0 -- -- 85
2019-02-01 03:00:00 9.8 0 Calma 6 Norte 0 -- -- 81
2019-02-01 02:00:00 10.2 0 Calma 8 Sudoeste 0 -- -- 79
2019-02-01 01:00:00 10.3 0 Calma 5 Noroeste 0 -- -- 75
2019-02-01 00:00:00 12.8 2 Sur 13 Noroeste 0 -- -- 62
2019-01-31 23:00:00 12.6 5 Oeste 21 Sudoeste 0 -- -- 66
2019-01-31 22:00:00 12.9 3 Oeste 20 Noroeste 0 -- -- 58
2019-01-31 21:00:00 14.2 12 Noroeste 27 Norte 0 -- -- 54
2019-01-31 20:00:00 14.4 8 Noroeste 32 Noroeste 0 -- -- 52
2019-01-31 19:00:00 14.3 6 Oeste 26 Oeste 0 -- -- 52
2019-01-31 18:00:00 15.2 10 Oeste 31 Sudoeste 0 -- -- 50
2019-01-31 17:00:00 15.9 10 Oeste 36 Oeste 0 -- -- 48
2019-01-31 16:00:00 16.7 10 Oeste 35 Sudoeste 0 -- -- 48
2019-01-31 15:00:00 16 10 Sudoeste 32 Oeste 0 -- -- 49
2019-01-31 14:00:00 16.1 12 Sudoeste 33 Oeste 0 -- -- 47
2019-01-31 13:00:00 13.5 12 Sudoeste 30 Oeste 0 -- -- 54
2019-01-31 12:00:00 12.2 9 Sudoeste 26 Sudoeste 0 -- -- 56
2019-01-31 11:00:00 11.5 9 Oeste 31 Oeste 0 -- -- 54
2019-01-31 10:00:00 10.3 7 Oeste 28 Oeste 0 -- -- 55
2019-01-31 09:00:00 9.6 9 Noroeste 25 Noroeste 0 -- -- 57
2019-01-31 08:00:00 8.9 10 Oeste 29 Sudoeste 0 -- -- 57
2019-01-31 07:00:00 8 3 Oeste 23 Oeste 0 -- -- 57
2019-01-31 06:00:00 8.2 4 Oeste 23 Noroeste 0 -- -- 51
2019-01-31 05:00:00 8.8 9 Noroeste 27 Noroeste 0 -- -- 47
2019-01-31 04:00:00 9.2 9 Noroeste 24 Noroeste 0 -- -- 45
2019-01-31 03:00:00 9.2 5 Noroeste 26 Noroeste 0 -- -- 43
2019-01-31 02:00:00 9.6 9 Noroeste 24 Noroeste 0 -- -- 43
2019-01-31 01:00:00 9.2 9 Noroeste 23 Noroeste 0 -- -- 46
2019-01-31 00:00:00 5.6 4 Noroeste 9 Noroeste 0 -- -- 60
2019-01-30 23:00:00 5.7 3 Norte 14 Noroeste 0 -- -- 57
2019-01-30 22:00:00 7.7 5 Noroeste 12 Sudoeste 0 -- -- 55
2019-01-30 21:00:00 7.6 4 Oeste 12 Oeste 0 -- -- 57
2019-01-30 20:00:00 8.8 6 Sudoeste 17 Sudoeste 0 -- -- 51
2019-01-30 19:00:00 8.5 3 Sudoeste 15 Sudoeste 0 -- -- 53
2019-01-30 18:00:00 9.4 0 Calma 16 Sudoeste 0 -- -- 45
2019-01-30 17:00:00 11.5 4 Sudoeste 20 Sudoeste 0 -- -- 39
2019-01-30 16:00:00 12.5 9 Sudoeste 22 Sudoeste 0 -- -- 36
2019-01-30 15:00:00 11.9 9 Sur 25 Sur 0 -- -- 40
2019-01-30 14:00:00 13.1 8 Sur 21 Sur 0 -- -- 38
2019-01-30 13:00:00 13 9 Sudoeste 24 Sudoeste 0 -- -- 40
2019-01-30 12:00:00 11.5 10 Sudoeste 22 Sudoeste 0 -- -- 40
2019-01-30 11:00:00 10.9 8 Sudoeste 20 Oeste 0 -- -- 43
2019-01-30 10:00:00 8.9 9 Sur 25 Oeste 0 -- -- 51
2019-01-30 09:00:00 6.6 10 Oeste 25 Oeste 0 -- -- 55
2019-01-30 08:00:00 5.5 4 Norte 17 Noroeste 0 -- -- 49
2019-01-30 07:00:00 7.5 10 Norte 21 Noroeste 0 -- -- 46
2019-01-30 06:00:00 7 14 Noroeste 24 Noroeste 0 -- -- 54
2019-01-30 05:00:00 4.3 5 Norte 13 Oeste 0 -- -- 72
2019-01-30 04:00:00 4.1 2 Noroeste 8 Oeste 0 -- -- 77
2019-01-30 03:00:00 4.1 4 Norte 9 Norte 0 -- -- 83
2019-01-30 02:00:00 4 2 Noroeste 9 Norte 0 -- -- 82
2019-01-30 01:00:00 4.7 0 Calma 10 Nordeste 0 -- -- 75
2019-01-30 00:00:00 7.3 0 Calma 28 Norte 0 -- -- 68
2019-01-29 23:00:00 8.8 5 Norte 22 Oeste 0 -- -- 63
2019-01-29 22:00:00 7.1 3 Sudeste 19 Sudoeste 0 -- -- 70
2019-01-29 21:00:00 7.4 4 Sur 26 Sudoeste 0 -- -- 69
2019-01-29 20:00:00 7.9 7 Oeste 20 Sudoeste 0 -- -- 69
2019-01-29 19:00:00 8.1 6 Oeste 17 Oeste 0 -- -- 69
2019-01-29 18:00:00 7.9 4 Sudoeste 13 Oeste 0 -- -- 70
2019-01-29 17:00:00 8.5 2 Noroeste 14 Noroeste 0 -- -- 68
2019-01-29 16:00:00 8.5 8 Noroeste 16 Noroeste 0 -- -- 70
2019-01-29 15:00:00 8.8 5 Noroeste 14 Oeste 0 -- -- 65
2019-01-29 14:00:00 9.7 5 Oeste 12 Oeste 0 -- -- 60
2019-01-29 13:00:00 9.5 4 Noroeste 13 Norte 0 -- -- 60
2019-01-29 12:00:00 10 5 Sudoeste 11 Sudoeste 0 -- -- 61
2019-01-29 11:00:00 10 0 Calma 7 Norte 0 -- -- 65
2019-01-29 10:00:00 9.2 4 Norte 9 Norte 0 -- -- 71
2019-01-29 09:00:00 6.9 6 Norte 12 Norte 0 -- -- 79
2019-01-29 08:00:00 5.9 4 Norte 11 Norte 0 -- -- 84
2019-01-29 07:00:00 5.6 5 Norte 10 Norte 0 -- -- 84
2019-01-29 06:00:00 5.6 5 Norte 11 Norte 0 -- -- 84
2019-01-29 05:00:00 4 4 Norte 15 Norte 0 -- -- 82
2019-01-29 04:00:00 3.7 6 Norte 14 Norte 0 -- -- 80
2019-01-29 03:00:00 3.7 6 Norte 8 Norte 0 -- -- 85
2019-01-29 02:00:00 4.6 5 Norte 11 Norte 0 -- -- 75
2019-01-29 01:00:00 4.5 3 Norte 11 Norte 0 -- -- 66
2019-01-29 00:00:00 5.5 3 Norte 9 Norte 0 -- -- 57
2019-01-28 23:00:00 8.9 7 Noroeste 27 Noroeste 0 -- -- 43
2019-01-28 22:00:00 9.3 11 Noroeste 22 Oeste 0 -- -- 45
2019-01-28 21:00:00 8.9 5 Noroeste 17 Noroeste 0 -- -- 48
2019-01-28 20:00:00 9.7 6 Noroeste 14 Noroeste 0 -- -- 46
2019-01-28 19:00:00 7.2 4 Norte 9 Norte 0 -- -- 56
2019-01-28 18:00:00 9.9 0 Calma 27 Noroeste 0 -- -- 43
2019-01-28 17:00:00 12.1 13 Noroeste 30 Noroeste 0 -- -- 37
2019-01-28 16:00:00 13.1 17 Norte 49 Noroeste 0 -- -- 36
2019-01-28 15:00:00 13.9 12 Noroeste 26 Norte 0 -- -- 36
2019-01-28 14:00:00 12.7 7 Sudeste 19 Sudeste 0 -- -- 38
2019-01-28 13:00:00 14.1 5 Sudeste 11 Este 0 -- -- 38
2019-01-28 12:00:00 13.4 3 Sur 22 Sudoeste 0 -- -- 41
2019-01-28 11:00:00 9.1 5 Sudeste 25 Oeste 0 -- -- 52
2019-01-28 10:00:00 7.8 2 Sudeste 15 Sudeste 0 -- -- 50
2019-01-28 09:00:00 7 7 Sur 32 Noroeste 0 -- -- 49
2019-01-28 08:00:00 5.8 6 Noroeste 17 Noroeste 0 -- -- 49
2019-01-28 07:00:00 5.2 5 Sur 11 Norte 0 -- -- 57
2019-01-28 06:00:00 3.3 5 Norte 15 Norte 0 -- -- 63
2019-01-28 05:00:00 3.8 4 Norte 14 Norte 0 -- -- 60
2019-01-28 04:00:00 4.9 6 Norte 18 Noroeste 0 -- -- 56
2019-01-28 03:00:00 4.6 5 Norte 17 Norte 0 -- -- 60
2019-01-28 02:00:00 4.6 6 Norte 13 Norte 0 -- -- 59
2019-01-28 01:00:00 4.9 0 Calma 14 Noroeste 0 -- -- 57
2019-01-28 00:00:00 5.9 2 Noroeste 17 Sudoeste 0 -- -- 55
2019-01-27 23:00:00 5.8 2 Norte 17 Nordeste 0 -- -- 63
2019-01-27 22:00:00 7.2 4 Este 12 Noroeste 0 -- -- 66
2019-01-27 21:00:00 7.7 3 Norte 8 Norte 0 -- -- 85
2019-01-27 20:00:00 9.5 4 Norte 12 Norte 0 -- -- 84
2019-01-27 19:00:00 9.6 4 Norte 9 Norte 0 -- -- 85
2019-01-27 18:00:00 11.3 0 Calma 13 Este 0 -- -- 76
2019-01-27 17:00:00 13 5 Sur 13 Norte 0 -- -- 58
2019-01-27 16:00:00 14.8 4 Norte 17 Noroeste 0 -- -- 40
2019-01-27 15:00:00 14.4 6 Noroeste 19 Noroeste 0 -- -- 41
2019-01-27 14:00:00 14.8 9 Oeste 22 Oeste 0 -- -- 40
2019-01-27 13:00:00 14.4 7 Oeste 24 Oeste 0 -- -- 41
2019-01-27 12:00:00 14.3 6 Oeste 21 Oeste 0 -- -- 41
2019-01-27 11:00:00 13.7 5 Sudoeste 17 Sudoeste 0 -- -- 47
2019-01-27 10:00:00 9.6 4 Noroeste 10 Norte 0 -- -- 85
2019-01-27 09:00:00 8.3 7 Norte 12 Norte 0 -- -- 87
2019-01-27 08:00:00 8.1 6 Norte 14 Norte 0 -- -- 85
2019-01-27 07:00:00 6.7 7 Norte 14 Norte 0 -- -- 86
2019-01-27 06:00:00 6.8 4 Norte 15 Norte 0 -- -- 83
2019-01-27 05:00:00 6.8 6 Norte 16 Norte 0 -- -- 82
2019-01-27 04:00:00 7.1 8 Norte 15 Norte 0 -- -- 79
2019-01-27 03:00:00 8 8 Norte 15 Norte 0 -- -- 74
2019-01-27 02:00:00 10.4 6 Oeste 19 Sudoeste 0 -- -- 62
2019-01-27 01:00:00 10.8 8 Noroeste 21 Oeste 0 -- -- 63
2019-01-27 00:00:00 10.5 5 Oeste 17 Sudoeste 0 -- -- 65
2019-01-26 23:00:00 9.9 5 Noroeste 21 Noroeste 0 -- -- 72
2019-01-26 22:00:00 7.6 0 Calma 6 Oeste 0 -- -- 79
2019-01-26 21:00:00 10.5 4 Oeste 17 Sudoeste 0 -- -- 63
2019-01-26 20:00:00 10.3 7 Sudoeste 17 Sudoeste 0 -- -- 66
2019-01-26 19:00:00 10.7 5 Oeste 11 Sudoeste 0 -- -- 83
2019-01-26 18:00:00 10.8 3 Sudoeste 19 Sur 0 -- -- 81
2019-01-26 17:00:00 12.5 9 Sudoeste 27 Sudoeste 0 -- -- 70
2019-01-26 16:00:00 13.2 12 Sudoeste 25 Sur 0 -- -- 66
2019-01-26 15:00:00 13.6 13 Sur 24 Sur 0 -- -- 60
2019-01-26 14:00:00 15.1 6 Sudeste 15 Sudeste 0 -- -- 50
2019-01-26 13:00:00 15.9 5 Sur 12 Sur 0 -- -- 47
2019-01-26 12:00:00 15.7 5 Sudeste 12 Sur 0 -- -- 51
2019-01-26 11:00:00 15.6 5 Sur 10 Sur 0 -- -- 49
2019-01-26 10:00:00 12.6 3 Norte 10 Norte 0 -- -- 56
2019-01-26 09:00:00 7.6 4 Norte 14 Norte 0 -- -- 70
2019-01-26 08:00:00 6.9 6 Norte 12 Norte 0 -- -- 69
2019-01-26 07:00:00 5.9 5 Norte 13 Norte 0 -- -- 71
2019-01-26 06:00:00 6.3 5 Norte 13 Norte 0 -- -- 67
2019-01-26 05:00:00 5.2 4 Norte 10 Nordeste 0 -- -- 71
2019-01-26 04:00:00 6.3 5 Norte 12 Norte 0 -- -- 65
2019-01-26 03:00:00 6.5 7 Norte 14 Norte 0 -- -- 63
2019-01-26 02:00:00 6.9 5 Norte 12 Norte 0 -- -- 60
2019-01-26 01:00:00 6.1 3 Norte 14 Norte 0 -- -- 63
2019-01-26 00:00:00 5.9 5 Norte 11 Norte 0 -- -- 62
2019-01-25 23:00:00 6.8 7 Norte 11 Norte 0 -- -- 61
2019-01-25 22:00:00 6.6 5 Norte 14 Norte 0 -- -- 65
2019-01-25 21:00:00 6.2 6 Norte 12 Norte 0 -- -- 66
2019-01-25 20:00:00 6.4 3 Norte 11 Norte 0 -- -- 70
2019-01-25 19:00:00 7.3 6 Norte 14 Noroeste 0 -- -- 74
2019-01-25 18:00:00 8.1 4 Noroeste 6 Norte 0 -- -- 71
2019-01-25 17:00:00 10.7 2 Sudeste 8 Sur 0 -- -- 59
2019-01-25 16:00:00 12 3 Sudoeste 12 Sur 0 -- -- 41
2019-01-25 15:00:00 11.7 5 Sur 13 Sur 0 -- -- 38
2019-01-25 14:00:00 14 5 Sur 17 Sur 0 -- -- 28
2019-01-25 13:00:00 14 6 Sur 21 Sur 0 -- -- 22
2019-01-25 12:00:00 15.3 5 Sur 13 Sudoeste 0 -- -- 21
2019-01-25 11:00:00 13.9 4 Sudoeste 14 Sudoeste 0 -- -- 27
2019-01-25 10:00:00 9.4 4 Nordeste 9 Norte 0 -- -- 35
2019-01-25 09:00:00 4.2 6 Norte 13 Norte 0 -- -- 37
2019-01-25 08:00:00 3.1 4 Norte 15 Nordeste 0 -- -- 34
2019-01-25 07:00:00 4.4 7 Norte 17 Norte 0 -- -- 31
2019-01-25 06:00:00 3.5 6 Norte 14 Norte 0 -- -- 36
2019-01-25 05:00:00 2.3 5 Norte 10 Norte 0 -- -- 36
2019-01-25 04:00:00 3.2 6 Norte 14 Norte 0 -- -- 33
2019-01-25 03:00:00 3.5 7 Norte 13 Norte 0 -- -- 32
2019-01-25 02:00:00 2.6 5 Norte 13 Norte 0 -- -- 30
2019-01-25 01:00:00 3.9 6 Norte 14 Norte 0 -- -- 26
2019-01-25 00:00:00 6.3 7 Norte 18 Nordeste 0 -- -- 23
2019-01-24 23:00:00 6.1 8 Norte 18 Noroeste 0 -- -- 23
2019-01-24 22:00:00 6.1 0 Calma 14 Noroeste 0 -- -- 23
2019-01-24 21:00:00 7.4 5 Norte 23 Noroeste 0 -- -- 23
2019-01-24 20:00:00 6.5 6 Norte 16 Norte 0 -- -- 29
2019-01-24 19:00:00 6.7 8 Norte 14 Norte 0 -- -- 28
2019-01-24 18:00:00 7.4 3 Norte 12 Oeste 0 -- -- 26
2019-01-24 17:00:00 10.8 4 Noroeste 19 Sudeste 0 -- -- 20
2019-01-24 16:00:00 12.7 3 Sur 18 Sudoeste 0 -- -- 21
2019-01-24 15:00:00 12.8 4 Sudeste 19 Sur 0 -- -- 22
2019-01-24 14:00:00 14.6 5 Sur 26 Norte 0 -- -- 18
2019-01-24 13:00:00 13.5 12 Norte 31 Noroeste 0 -- -- 16
2019-01-24 12:00:00 13.2 8 Noroeste 33 Norte 0 -- -- 18
2019-01-24 11:00:00 10.9 12 Norte 27 Noroeste 0 -- -- 22
2019-01-24 10:00:00 9.1 10 Noroeste 38 Noroeste 0 -- -- 23
2019-01-24 09:00:00 7.4 16 Noroeste 37 Noroeste 0 -- -- 25
2019-01-24 08:00:00 6.2 8 Norte 24 Noroeste 0 -- -- 29
2019-01-24 07:00:00 5.4 12 Noroeste 37 Noroeste 0 -- -- 32
2019-01-24 06:00:00 6.2 19 Noroeste 38 Norte 0 -- -- 34
2019-01-24 05:00:00 5.7 11 Noroeste 42 Noroeste 0 -- -- 31
2019-01-24 04:00:00 6.7 12 Noroeste 30 Noroeste 0 -- -- 26
2019-01-24 03:00:00 6.8 9 Norte 33 Noroeste 0 -- -- 25
2019-01-24 02:00:00 7.5 19 Noroeste 38 Norte 0 -- -- 27
2019-01-24 01:00:00 6.6 11 Norte 24 Norte 0 -- -- 34
2019-01-24 00:00:00 6 7 Noroeste 21 Noroeste 0 -- -- 47
2019-01-23 23:00:00 4.6 9 Norte 15 Norte 0 -- -- 58
2019-01-23 22:00:00 5.5 6 Norte 21 Noroeste 0 -- -- 52
2019-01-23 21:00:00 7 10 Norte 21 Norte 0 -- -- 48
2019-01-23 20:00:00 7 5 Noroeste 26 Noroeste 0 -- -- 51
2019-01-23 19:00:00 8.8 13 Noroeste 44 Noroeste 0 -- -- 44
2019-01-23 18:00:00 9.1 8 Norte 21 Noroeste 0 -- -- 56
2019-01-23 17:00:00 10.3 2 Norte 8 Sur 0 -- -- 54
2019-01-23 16:00:00 10.4 3 Sur 8 Sur 0 -- -- 53
2019-01-23 15:00:00 10.3 0 Calma 9 Sudeste 0 -- -- 51
2019-01-23 14:00:00 11 4 Sur 11 Sudeste 0 -- -- 49
2019-01-23 13:00:00 11.8 4 Sur 14 Sudeste 0 -- -- 53
2019-01-23 12:00:00 9.8 3 Este 10 Sudoeste 0 -- -- 60
2019-01-23 11:00:00 6.9 4 Sudoeste 11 Oeste 0.1 -- -- 78
2019-01-23 10:00:00 6.1 0 Calma 14 Sudoeste 0 -- -- 62
2019-01-23 09:00:00 5.1 0 Calma 8 Sudoeste 0 -- -- 64
2019-01-23 08:00:00 4.2 2 Noroeste 15 Sudoeste 0 -- -- 64
2019-01-23 07:00:00 4.9 5 Norte 27 Noroeste 0 -- -- 58
2019-01-23 06:00:00 6.2 10 Noroeste 26 Noroeste 0 -- -- 52
2019-01-23 05:00:00 6.4 9 Noroeste 27 Noroeste 0 -- -- 52
2019-01-23 04:00:00 6.4 9 Noroeste 17 Noroeste 0 -- -- 50
2019-01-23 03:00:00 6.8 10 Noroeste 18 Noroeste 0 -- -- 46
2019-01-23 02:00:00 5.8 6 Norte 15 Norte 0 -- -- 61
2019-01-23 01:00:00 6.2 8 Norte 16 Norte 0 -- -- 54
2019-01-23 00:00:00 5.7 7 Norte 13 Norte 0 -- -- 52
2019-01-22 23:00:00 5.5 5 Norte 12 Norte 0 -- -- 47
2019-01-22 22:00:00 5.3 4 Norte 9 Norte 0 -- -- 45
2019-01-22 21:00:00 7 4 Norte 13 Oeste 0 -- -- 40
2019-01-22 20:00:00 7.6 6 Sudoeste 16 Sudoeste 0 -- -- 38
2019-01-22 19:00:00 8.2 5 Oeste 22 Noroeste 0 -- -- 32
2019-01-22 18:00:00 8.7 9 Noroeste 18 Noroeste 0 -- -- 33
2019-01-22 17:00:00 9.3 6 Noroeste 14 Noroeste 0 -- -- 38
2019-01-22 16:00:00 10.4 4 Sudoeste 12 Sudoeste 0 -- -- 38
2019-01-22 15:00:00 10.1 5 Sur 12 Sur 0 -- -- 47
2019-01-22 14:00:00 11 4 Sur 13 Sudoeste 0 -- -- 39
2019-01-22 13:00:00 10.5 4 Sur 10 Sur 0 -- -- 41
2019-01-22 12:00:00 10.8 4 Sur 9 Sur 0 -- -- 40
2019-01-22 11:00:00 11.4 3 Sudeste 8 Norte 0 -- -- 42
2019-01-22 10:00:00 7.7 4 Norte 8 Norte 0 -- -- 64
2019-01-22 09:00:00 4 5 Norte 13 Norte 0 -- -- 79
2019-01-22 08:00:00 3.9 8 Norte 16 Norte 0 -- -- 76
2019-01-22 07:00:00 4.4 8 Norte 15 Norte 0 -- -- 74
2019-01-22 06:00:00 5.6 6 Norte 13 Noroeste 0 -- -- 76
2019-01-22 05:00:00 5.4 9 Noroeste 12 Noroeste 0 -- -- 81
2019-01-22 04:00:00 4.7 7 Norte 13 Norte 0 -- -- 79
2019-01-22 03:00:00 5.7 5 Norte 11 Norte 0 -- -- 75
2019-01-22 02:00:00 6.1 6 Norte 14 Norte 0 -- -- 75
2019-01-22 01:00:00 5.8 2 Noroeste 10 Norte 0 -- -- 80
2019-01-22 00:00:00 5.7 3 Norte 12 Norte 0 -- -- 81
2019-01-21 23:00:00 5.7 5 Norte 17 Norte 0 -- -- 83
2019-01-21 22:00:00 5.8 7 Norte 13 Norte 0 -- -- 84
2019-01-21 21:00:00 6.6 4 Noroeste 12 Noroeste 0 -- -- 80
2019-01-21 20:00:00 6.9 5 Noroeste 9 Noroeste 0 -- -- 80
2019-01-21 19:00:00 7.2 4 Noroeste 9 Noroeste 0 -- -- 82
2019-01-21 18:00:00 7.4 4 Norte 9 Noroeste 0 -- -- 83
2019-01-21 17:00:00 8.8 4 Noroeste 7 Sudoeste 0 -- -- 79
2019-01-21 16:00:00 9.9 4 Sur 17 Sur 0 -- -- 70
2019-01-21 15:00:00 11.8 6 Sur 14 Sur 0 -- -- 52
2019-01-21 14:00:00 12.3 5 Sur 17 Sudoeste 0 -- -- 49
2019-01-21 13:00:00 12.4 6 Sur 14 Sudoeste 0 -- -- 51
2019-01-21 12:00:00 13.3 3 Sur 10 Sudeste 0 -- -- 44
2019-01-21 11:00:00 12.6 0 Calma 7 Sur 0 -- -- 48
2019-01-21 10:00:00 9.6 0 Calma 7 Nordeste 0 -- -- 70
2019-01-21 09:00:00 4.7 5 Norte 14 Norte 0 -- -- 83
2019-01-21 08:00:00 4.2 5 Norte 12 Norte 0 -- -- 82
2019-01-21 07:00:00 4.5 5 Norte 14 Norte 0 -- -- 81
2019-01-21 06:00:00 4 6 Norte 15 Norte 0 -- -- 81
2019-01-21 05:00:00 4.4 5 Norte 9 Norte 0 -- -- 80
2019-01-21 04:00:00 5.8 5 Norte 17 Norte 0 -- -- 71
2019-01-21 03:00:00 6.3 10 Norte 19 Noroeste 0 -- -- 70
2019-01-21 02:00:00 7.4 15 Noroeste 22 Norte 0 -- -- 66
2019-01-21 01:00:00 6.9 8 Norte 21 Noroeste 0 -- -- 69
2019-01-21 00:00:00 6.6 3 Norte 19 Nordeste 0 -- -- 75
2019-01-20 23:00:00 8.2 3 Norte 16 Nordeste 0 -- -- 70
2019-01-20 22:00:00 8.6 4 Nordeste 24 Norte 0 -- -- 67
2019-01-20 21:00:00 8.7 7 Norte 25 Norte 0 -- -- 65
2019-01-20 20:00:00 8.8 4 Nordeste 21 Norte 0 -- -- 64
2019-01-20 19:00:00 9 5 Norte 22 Norte 0 -- -- 64
2019-01-20 18:00:00 9 3 Norte 19 Norte 0 -- -- 65
2019-01-20 17:00:00 9.2 7 Norte 27 Nordeste 0 -- -- 64
2019-01-20 16:00:00 9.5 7 Nordeste 26 Norte 0 -- -- 64
2019-01-20 15:00:00 9.3 2 Nordeste 22 Nordeste 0 -- -- 71
2019-01-20 14:00:00 9.2 6 Norte 25 Nordeste 0 -- -- 68
2019-01-20 13:00:00 8.6 6 Nordeste 19 Nordeste 0.1 -- -- 78
2019-01-20 12:00:00 8.4 8 Norte 21 Norte 1.1 -- -- 88
2019-01-20 11:00:00 8.1 9 Norte 21 Nordeste 1.4 -- -- 91
2019-01-20 10:00:00 8.3 5 Norte 15 Norte 2 -- -- 92
2019-01-20 09:00:00 8.6 5 Norte 10 Nordeste 2 -- -- 92
2019-01-20 08:00:00 8.5 3 Norte 8 Norte 1.2 -- -- 92
2019-01-20 07:00:00 8.3 3 Norte 8 Norte 1.2 -- -- 92
2019-01-20 06:00:00 8.3 5 Norte 14 Noroeste 0.5 -- -- 91
2019-01-20 05:00:00 8.1 8 Norte 14 Norte 0.1 -- -- 90
2019-01-20 04:00:00 7.9 6 Norte 14 Nordeste 0.1 -- -- 91
2019-01-20 03:00:00 7.7 4 Norte 9 Noroeste 0.6 -- -- 91
2019-01-20 02:00:00 8.1 0 Calma 7 Oeste 0 -- -- 75
2019-01-20 01:00:00 7.4 0 Calma 6 Nordeste 0 -- -- 75
2019-01-20 00:00:00 7.4 4 Noroeste 8 Oeste 0 -- -- 75
2019-01-19 23:00:00 8 4 Noroeste 8 Oeste 0 -- -- 72
2019-01-19 22:00:00 5.9 3 Norte 9 Norte 0 -- -- 86
2019-01-19 21:00:00 6.1 4 Norte 8 Norte 0 -- -- 87
2019-01-19 20:00:00 6 5 Norte 8 Norte 0 -- -- 84
2019-01-19 19:00:00 7.2 4 Noroeste 7 Noroeste 0 -- -- 78
2019-01-19 18:00:00 8.2 2 Oeste 11 Sur 0 -- -- 72
2019-01-19 17:00:00 10.3 6 Sur 14 Sudoeste 0 -- -- 63
2019-01-19 16:00:00 11.2 6 Sur 16 Sur 0 -- -- 58
2019-01-19 15:00:00 11.6 6 Sudoeste 17 Sur 0 -- -- 56
2019-01-19 14:00:00 12.8 7 Sur 15 Sur 0 -- -- 49
2019-01-19 13:00:00 12.9 5 Sur 12 Sur 0 -- -- 50
2019-01-19 12:00:00 13.6 3 Sur 12 Sudeste 0 -- -- 48
2019-01-19 11:00:00 12.7 2 Este 8 Nordeste 0 -- -- 50
2019-01-19 10:00:00 9.2 6 Norte 14 Norte 0 -- -- 68
2019-01-19 09:00:00 6.1 9 Norte 15 Norte 0 -- -- 83
2019-01-19 08:00:00 6 7 Norte 15 Norte 0 -- -- 83
2019-01-19 07:00:00 5.7 9 Norte 17 Norte 0 -- -- 83
2019-01-19 06:00:00 6.2 8 Norte 14 Norte 0 -- -- 82
2019-01-19 05:00:00 6.8 5 Norte 13 Norte 0 -- -- 80
2019-01-19 04:00:00 5.9 8 Norte 15 Norte 0 -- -- 82
2019-01-19 03:00:00 6.3 6 Norte 12 Norte 0 -- -- 78
2019-01-19 02:00:00 6.4 6 Norte 14 Norte 0 -- -- 78
2019-01-19 01:00:00 6.2 0 Calma 14 Norte 0 -- -- 78
2019-01-19 00:00:00 6 0 Calma 12 Norte 0 -- -- 77